createdAt,value
2019-04-03T00:01:06.715Z,57.36
2019-04-03T00:03:38.487Z,58.01
2019-04-03T00:06:11.877Z,58.07
2019-04-03T00:08:43.639Z,58.52
2019-04-03T00:11:15.477Z,59.38
2019-04-03T00:13:47.136Z,60.07
2019-04-03T00:16:18.848Z,60.63
2019-04-03T00:18:50.563Z,61.62
2019-04-03T00:21:22.309Z,61.39
2019-04-03T00:23:54.995Z,61.32
2019-04-03T00:26:26.761Z,62.56
2019-04-03T00:28:58.661Z,62.90
2019-04-03T00:31:30.424Z,62.78
2019-04-03T00:34:02.125Z,63.32
2019-04-03T00:36:33.841Z,63.57
2019-04-03T00:39:07.745Z,63.33
2019-04-03T00:41:39.515Z,63.27
2019-04-03T00:44:11.585Z,63.09
2019-04-03T00:46:43.353Z,63.12
2019-04-03T00:49:15.087Z,63.13
2019-04-03T00:51:46.894Z,64.43
2019-04-03T00:54:18.634Z,65.35
2019-04-03T00:56:50.346Z,65.57
2019-04-03T00:59:22.364Z,65.90
2019-04-03T01:01:56.061Z,66.70
2019-04-03T01:04:28.809Z,66.87
2019-04-03T01:07:01.308Z,67.00
2019-04-03T01:09:32.993Z,67.61
2019-04-03T01:12:04.692Z,67.06
2019-04-03T01:14:36.374Z,67.43
2019-04-03T01:17:08.071Z,67.26
2019-04-03T01:19:40.147Z,66.97
2019-04-03T01:22:11.802Z,66.97
2019-04-03T01:24:43.505Z,67.56
2019-04-03T01:27:15.203Z,68.00
2019-04-03T01:29:47.040Z,68.08
2019-04-03T01:32:18.473Z,68.28
2019-04-03T01:34:50.166Z,69.06
2019-04-03T01:37:22.132Z,69.14
2019-04-03T01:39:54.430Z,69.94
2019-04-03T01:42:26.121Z,70.04
2019-04-03T01:44:57.797Z,70.85
2019-04-03T01:47:30.133Z,71.29
2019-04-03T01:50:01.830Z,71.27
2019-04-03T01:52:33.511Z,71.02
2019-04-03T01:55:05.534Z,71.63
2019-04-03T01:57:37.434Z,72.08
2019-04-03T02:00:10.289Z,71.87
2019-04-03T02:02:42.446Z,72.14
2019-04-03T02:05:14.270Z,72.59
2019-04-03T02:07:46.165Z,72.99
2019-04-03T02:10:20.154Z,73.08
2019-04-03T02:12:51.928Z,73.19
2019-04-03T02:15:23.932Z,73.57
2019-04-03T02:17:56.062Z,73.38
2019-04-03T02:20:27.767Z,73.58
2019-04-03T02:23:00.486Z,73.33
2019-04-03T02:25:32.585Z,73.19
2019-04-03T02:28:04.563Z,72.91
2019-04-03T02:30:36.720Z,72.69
2019-04-03T02:33:08.489Z,72.88
2019-04-03T02:35:40.943Z,72.27
2019-04-03T02:38:12.812Z,72.49
2019-04-03T02:40:44.574Z,72.09
2019-04-03T02:43:16.650Z,71.03
2019-04-03T02:45:48.730Z,70.63
2019-04-03T02:48:20.693Z,70.20
2019-04-03T02:50:52.944Z,71.20
2019-04-03T02:53:24.893Z,70.08
2019-04-03T02:55:56.710Z,69.88
2019-04-03T02:58:28.448Z,70.39
2019-04-03T03:01:00.524Z,71.50
2019-04-03T03:03:32.458Z,71.13
2019-04-03T03:06:04.472Z,71.47
2019-04-03T03:08:40.742Z,71.75
2019-04-03T03:11:10.323Z,71.72
2019-04-03T03:13:42.293Z,72.63
2019-04-03T03:16:17.327Z,72.31
2019-04-03T03:18:48.257Z,72.01
2019-04-03T03:21:21.488Z,72.37
2019-04-03T03:23:56.220Z,73.27
2019-04-03T03:26:27.545Z,73.60
2019-04-03T03:29:15.383Z,74.62
2019-04-03T03:31:59.676Z,74.83
2019-04-03T03:34:07.931Z,75.45
2019-04-03T03:36:41.566Z,75.82
2019-04-03T03:39:14.833Z,76.00
2019-04-03T03:41:47.167Z,76.00
2019-04-03T03:44:21.599Z,76.28
2019-04-03T03:46:55.118Z,76.43
2019-04-03T03:49:27.837Z,76.79
2019-04-03T03:52:03.966Z,77.29
2019-04-03T03:54:35.099Z,77.25
2019-04-03T03:57:07.528Z,77.79
2019-04-03T03:59:40.860Z,78.69
2019-04-03T04:02:12.749Z,78.74
2019-04-03T04:04:48.156Z,78.76
2019-04-03T04:07:18.360Z,79.31
2019-04-03T04:09:53.241Z,79.44
2019-04-03T04:12:25.757Z,79.81
2019-04-03T04:14:58.992Z,79.04
2019-04-03T04:17:31.067Z,78.92
2019-04-03T04:20:05.317Z,78.47
2019-04-03T04:22:37.323Z,78.33
2019-04-03T04:25:09.775Z,78.10
2019-04-03T04:27:43.363Z,78.99
2019-04-03T04:30:19.643Z,79.16
2019-04-03T04:32:51.399Z,80.03
2019-04-03T04:35:23.325Z,80.03
2019-04-03T04:37:55.971Z,80.97
2019-04-03T04:40:28.978Z,81.43
2019-04-03T04:43:04.161Z,82.34
2019-04-03T04:45:35.921Z,82.64
2019-04-03T04:48:07.838Z,82.77
2019-04-03T04:50:39.643Z,82.79
2019-04-03T04:53:12.049Z,83.14
2019-04-03T04:55:43.842Z,83.33
2019-04-03T04:58:15.580Z,83.45
2019-04-03T05:00:47.849Z,81.99
2019-04-03T05:03:21.854Z,79.48
2019-04-03T05:05:53.546Z,79.01
2019-04-03T05:08:25.368Z,78.36
2019-04-03T05:10:57.233Z,77.76
2019-04-03T05:13:29.181Z,78.05
2019-04-03T05:16:00.976Z,77.94
2019-04-03T05:18:32.787Z,77.25
2019-04-03T05:21:05.274Z,77.04
2019-04-03T05:23:37.207Z,76.48
2019-04-03T05:26:08.924Z,77.21
2019-04-03T05:28:53.311Z,77.20
2019-04-03T05:31:14.324Z,77.14
2019-04-03T05:33:46.208Z,77.09
2019-04-03T05:36:18.400Z,77.13
2019-04-03T05:38:51.047Z,78.33
2019-04-03T05:41:23.660Z,77.93
2019-04-03T05:43:55.398Z,77.12
2019-04-03T05:46:27.125Z,77.05
2019-04-03T05:49:00.168Z,77.77
2019-04-03T05:51:32.018Z,77.62
2019-04-03T05:54:03.800Z,78.78
2019-04-03T05:56:35.616Z,78.25
2019-04-03T05:59:08.681Z,77.30
2019-04-03T06:01:41.959Z,77.91
2019-04-03T06:04:14.006Z,77.73
2019-04-03T06:06:46.881Z,78.61
2019-04-03T06:09:20.089Z,77.91
2019-04-03T06:11:52.857Z,78.42
2019-04-03T06:14:24.627Z,78.04
2019-04-03T06:16:57.724Z,78.92
2019-04-03T06:19:29.474Z,78.91
2019-04-03T06:22:01.368Z,78.61
2019-04-03T06:24:33.106Z,78.04
2019-04-03T06:27:05.001Z,77.79
2019-04-03T06:29:36.795Z,77.33
2019-04-03T06:32:08.593Z,78.20
2019-04-03T06:34:43.331Z,76.94
2019-04-03T06:37:14.263Z,77.89
2019-04-03T06:39:46.005Z,77.28
2019-04-03T06:42:18.008Z,77.67
2019-04-03T06:44:52.753Z,77.66
2019-04-03T06:47:23.263Z,78.08
2019-04-03T06:49:54.997Z,77.65
2019-04-03T06:52:26.805Z,77.11
2019-04-03T06:54:58.594Z,77.18
2019-04-03T06:57:30.323Z,76.78
2019-04-03T07:00:02.297Z,76.47
2019-04-03T07:02:34.383Z,75.75
2019-04-03T07:05:09.637Z,75.40
2019-04-03T07:07:40.167Z,74.76
2019-04-03T07:10:24.488Z,75.37
2019-04-03T07:12:47.833Z,75.17
2019-04-03T07:15:19.010Z,74.98
2019-04-03T07:17:52.007Z,75.51
2019-04-03T07:20:23.973Z,74.32
2019-04-03T07:22:56.977Z,73.50
2019-04-03T07:25:29.149Z,72.67
2019-04-03T07:28:00.867Z,72.25
2019-04-03T07:30:32.664Z,72.88
2019-04-03T07:33:05.802Z,72.91
2019-04-03T07:35:40.222Z,72.92
2019-04-03T07:38:12.749Z,72.95
2019-04-03T07:40:44.558Z,72.53
2019-04-03T07:43:16.533Z,73.03
2019-04-03T07:45:48.254Z,72.99
2019-04-03T07:48:20.049Z,72.95
2019-04-03T07:50:51.860Z,72.63
2019-04-03T07:53:23.594Z,72.34
2019-04-03T07:55:55.975Z,72.95
2019-04-03T07:58:30.531Z,72.42
2019-04-03T08:01:01.415Z,72.28
2019-04-03T08:03:33.210Z,71.38
2019-04-03T08:06:05.629Z,71.03
2019-04-03T08:08:37.341Z,71.14
2019-04-03T08:11:09.153Z,69.76
2019-04-03T08:13:40.871Z,68.38
2019-04-03T08:16:15.130Z,68.48
2019-04-03T08:18:46.323Z,68.65
2019-04-03T08:21:18.060Z,67.99
2019-04-03T08:23:50.029Z,68.39
2019-04-03T08:26:21.806Z,67.39
2019-04-03T08:28:53.647Z,67.58
2019-04-03T08:31:25.723Z,67.24
2019-04-03T08:33:59.517Z,68.34
2019-04-03T08:36:30.942Z,67.22
2019-04-03T08:39:03.309Z,66.45
2019-04-03T08:41:37.793Z,65.72
2019-04-03T08:44:09.841Z,65.72
2019-04-03T08:46:43.884Z,65.83
2019-04-03T08:49:15.152Z,66.29
2019-04-03T08:51:46.917Z,65.33
2019-04-03T08:54:18.790Z,63.27
2019-04-03T08:56:50.851Z,64.59
2019-04-03T08:59:22.647Z,65.41
2019-04-03T09:01:55.760Z,64.19
2019-04-03T09:04:28.241Z,64.37
2019-04-03T09:07:00.092Z,66.45
2019-04-03T09:09:34.894Z,60.58
2019-04-03T09:12:07.298Z,62.03
2019-04-03T09:14:39.295Z,62.90
2019-04-03T09:17:11.372Z,60.13
2019-04-03T09:19:43.179Z,59.67
2019-04-03T09:22:14.981Z,58.80
2019-04-03T09:24:46.710Z,59.33
2019-04-03T09:27:18.445Z,60.00
2019-04-03T09:29:50.167Z,59.76
2019-04-03T09:32:22.743Z,59.80
2019-04-03T09:34:55.356Z,59.66
2019-04-03T09:37:27.094Z,59.89
2019-04-03T09:39:58.838Z,59.75
2019-04-03T09:42:30.574Z,59.16
2019-04-03T09:45:02.383Z,60.06
2019-04-03T09:47:34.930Z,59.70
2019-04-03T09:50:10.114Z,59.30
2019-04-03T09:52:48.469Z,59.47
2019-04-03T09:55:15.485Z,59.50
2019-04-03T09:57:47.282Z,59.73
2019-04-03T10:00:19.390Z,60.75
2019-04-03T10:02:51.967Z,61.36
2019-04-03T10:05:23.848Z,58.48
2019-04-03T10:07:56.081Z,58.62
2019-04-03T10:10:28.131Z,57.78
2019-04-03T10:13:00.017Z,58.37
2019-04-03T10:15:32.030Z,59.24
2019-04-03T10:18:04.123Z,59.72
2019-04-03T10:20:36.680Z,60.03
2019-04-03T10:23:08.670Z,60.52
2019-04-03T10:25:40.659Z,61.31
2019-04-03T10:28:14.772Z,61.06
2019-04-03T10:30:46.267Z,59.58
2019-04-03T10:33:18.054Z,59.34
2019-04-03T10:35:50.066Z,59.25
2019-04-03T10:38:22.015Z,58.97
2019-04-03T10:40:56.223Z,59.15
2019-04-03T10:43:27.380Z,58.26
2019-04-03T10:45:59.099Z,58.86
2019-04-03T10:48:30.988Z,58.55
2019-04-03T10:51:02.900Z,59.56
2019-04-03T10:53:34.640Z,60.91
2019-04-03T10:56:07.930Z,62.03
2019-04-03T10:58:42.193Z,59.75
2019-04-03T11:01:13.873Z,60.02
2019-04-03T11:03:45.695Z,59.97
2019-04-03T11:06:17.496Z,55.69
2019-04-03T11:08:49.314Z,55.95
2019-04-03T11:11:21.302Z,55.05
2019-04-03T11:13:54.461Z,55.95
2019-04-03T11:16:26.331Z,56.53
2019-04-03T11:19:02.725Z,55.50
2019-04-03T11:21:32.219Z,56.28
2019-04-03T11:24:06.210Z,58.12
2019-04-03T11:26:38.334Z,57.02
2019-04-03T11:29:10.554Z,56.24
2019-04-03T11:31:43.354Z,55.64
2019-04-03T11:34:17.313Z,54.85
2019-04-03T11:36:48.588Z,57.20
2019-04-03T11:39:20.332Z,58.33
2019-04-03T11:41:54.533Z,55.80
2019-04-03T11:44:25.668Z,56.84
2019-04-03T11:46:57.446Z,56.03
2019-04-03T11:49:29.324Z,56.94
2019-04-03T11:52:01.921Z,56.17
2019-04-03T11:54:34.030Z,56.31
2019-04-03T11:57:06.541Z,54.98
2019-04-03T11:59:38.306Z,53.53
2019-04-03T12:02:12.112Z,53.78
2019-04-03T12:04:44.648Z,53.75
2019-04-03T12:07:16.795Z,54.98
2019-04-03T12:09:48.602Z,54.61
2019-04-03T12:12:20.311Z,54.99
2019-04-03T12:14:52.208Z,55.63
2019-04-03T12:17:23.941Z,56.68
2019-04-03T12:19:55.764Z,55.88
2019-04-03T12:22:27.592Z,54.25
2019-04-03T12:24:59.391Z,55.98
2019-04-03T12:27:31.277Z,53.79
2019-04-03T12:30:03.409Z,53.27
2019-04-03T12:32:38.508Z,54.00
2019-04-03T12:35:09.724Z,52.49
2019-04-03T12:37:42.425Z,53.33
2019-04-03T12:40:14.823Z,54.78
2019-04-03T12:42:46.510Z,50.32
2019-04-03T12:45:18.831Z,50.48
2019-04-03T12:47:50.963Z,51.27
2019-04-03T12:50:26.537Z,55.11
2019-04-03T12:52:57.110Z,49.74
2019-04-03T12:55:29.169Z,50.37
2019-04-03T12:58:02.361Z,48.47
2019-04-03T13:00:34.766Z,50.70
2019-04-03T13:03:06.679Z,50.53
2019-04-03T13:05:38.683Z,50.89
2019-04-03T13:08:12.081Z,50.08
2019-04-03T13:10:47.876Z,50.02
2019-04-03T13:13:18.152Z,50.10
2019-04-03T13:15:50.027Z,47.78
2019-04-03T13:18:22.129Z,48.07
2019-04-03T13:20:54.208Z,49.12
2019-04-03T13:23:25.958Z,48.71
2019-04-03T13:25:57.789Z,47.92
2019-04-03T13:28:29.509Z,47.93
2019-04-03T13:31:01.245Z,48.02
2019-04-03T13:33:32.963Z,47.64
2019-04-03T13:36:05.283Z,47.25
2019-04-03T13:38:37.058Z,44.03
2019-04-03T13:41:10.661Z,45.58
2019-04-03T13:43:42.553Z,45.26
2019-04-03T13:46:15.511Z,46.54
2019-04-03T13:48:47.322Z,46.50
2019-04-03T13:51:19.949Z,43.97
2019-04-03T13:53:53.008Z,45.10
2019-04-03T13:56:25.684Z,45.21
2019-04-03T13:58:57.981Z,45.17
2019-04-03T14:01:30.045Z,44.97
2019-04-03T14:04:01.885Z,43.77
2019-04-03T14:06:36.229Z,44.15
2019-04-03T14:09:08.797Z,44.17
2019-04-03T14:11:41.067Z,44.82
2019-04-03T14:14:15.729Z,43.94
2019-04-03T14:16:46.722Z,43.37
2019-04-03T14:19:18.926Z,43.10
2019-04-03T14:21:50.871Z,42.02
2019-04-03T14:24:22.602Z,40.08
2019-04-03T14:26:54.378Z,41.07
2019-04-03T14:29:28.883Z,39.39
2019-04-03T14:31:59.829Z,40.28
2019-04-03T14:34:31.630Z,40.99
2019-04-03T14:37:03.362Z,39.10
2019-04-03T14:39:35.389Z,39.89
2019-04-03T14:42:08.160Z,41.38
2019-04-03T14:44:40.516Z,39.75
2019-04-03T14:47:13.617Z,41.08
2019-04-03T14:49:45.300Z,41.20
2019-04-03T14:52:17.658Z,41.85
2019-04-03T14:54:49.610Z,42.47
2019-04-03T14:57:23.636Z,42.70
2019-04-03T14:59:55.452Z,43.33
2019-04-03T15:02:27.196Z,44.20
2019-04-03T15:04:59.087Z,44.63
2019-04-03T15:07:30.936Z,45.41
2019-04-03T15:10:03.082Z,44.40
2019-04-03T15:12:38.629Z,45.32
2019-04-03T15:15:10.240Z,45.89
2019-04-03T15:17:42.053Z,45.20
2019-04-03T15:20:16.916Z,46.08
2019-04-03T15:22:47.777Z,46.34
2019-04-03T15:25:20.852Z,46.33
2019-04-03T15:27:52.820Z,46.39
2019-04-03T15:30:25.824Z,46.39
2019-04-03T15:32:57.971Z,47.13
2019-04-03T15:35:32.172Z,48.29
2019-04-03T15:38:04.168Z,48.30
2019-04-03T15:40:36.278Z,47.09
2019-04-03T15:43:10.832Z,46.56
2019-04-03T15:45:42.122Z,47.48
2019-04-03T15:48:13.942Z,47.83
2019-04-03T15:50:45.742Z,47.85
2019-04-03T15:53:17.992Z,47.46
2019-04-03T15:55:50.117Z,47.85
2019-04-03T15:58:22.853Z,48.03
2019-04-03T16:00:55.313Z,48.06
2019-04-03T16:03:27.467Z,47.79
2019-04-03T16:06:03.504Z,47.70
2019-04-03T16:08:34.313Z,47.91
2019-04-03T16:11:06.200Z,48.38
2019-04-03T16:13:37.943Z,48.58
2019-04-03T16:16:09.745Z,48.15
2019-04-03T16:18:41.484Z,48.52
2019-04-03T16:21:13.351Z,49.00
2019-04-03T16:23:45.328Z,55.09
2019-04-03T16:26:17.081Z,59.31
2019-04-03T16:28:48.891Z,59.03
2019-04-03T16:31:21.793Z,59.48
2019-04-03T16:33:55.132Z,60.10
2019-04-03T16:36:27.031Z,60.06
2019-04-03T16:39:01.102Z,60.94
2019-04-03T16:41:33.719Z,61.02
2019-04-03T16:44:06.396Z,59.67
2019-04-03T16:46:38.173Z,60.19
2019-04-03T16:49:10.418Z,64.47
2019-04-03T16:51:42.490Z,67.49
2019-04-03T16:54:14.385Z,70.10
2019-04-03T16:56:46.990Z,72.78
2019-04-03T16:59:19.693Z,73.51
2019-04-03T17:01:51.504Z,74.68
2019-04-03T17:04:27.128Z,76.54
2019-04-03T17:06:56.961Z,76.77
2019-04-03T17:09:28.803Z,78.83
2019-04-03T17:12:01.111Z,77.99
2019-04-03T17:14:33.131Z,81.45
2019-04-03T17:17:04.992Z,80.73
2019-04-03T17:19:37.290Z,81.43
2019-04-03T17:22:09.478Z,84.80
2019-04-03T17:24:46.441Z,86.17
2019-04-03T17:27:15.392Z,84.65
2019-04-03T17:29:48.113Z,84.42
2019-04-03T17:32:19.943Z,82.19
2019-04-03T17:34:51.669Z,82.43
2019-04-03T17:37:27.101Z,83.22
2019-04-03T17:39:58.584Z,83.42
2019-04-03T17:42:30.309Z,82.46
2019-04-03T17:45:02.182Z,83.19
2019-04-03T17:47:34.171Z,82.56
2019-04-03T17:50:06.744Z,83.43
2019-04-03T17:52:39.567Z,82.36
2019-04-03T17:55:11.930Z,82.34
2019-04-03T17:57:45.271Z,81.03
2019-04-03T18:00:20.976Z,80.27
2019-04-03T18:02:53.527Z,81.03
2019-04-03T18:05:26.118Z,81.48
2019-04-03T18:07:58.883Z,82.53
2019-04-03T18:10:31.285Z,83.84
2019-04-03T18:13:03.217Z,83.57
2019-04-03T18:15:35.100Z,83.22
2019-04-03T18:18:06.913Z,83.16
2019-04-03T18:20:38.744Z,83.52
2019-04-03T18:23:11.448Z,83.72
2019-04-03T18:25:44.228Z,83.10
2019-04-03T18:28:15.955Z,85.44
2019-04-03T18:30:48.232Z,84.60
2019-04-03T18:33:20.032Z,83.45
2019-04-03T18:35:51.779Z,83.90
2019-04-03T18:38:23.756Z,84.46
2019-04-03T18:40:55.578Z,83.36
2019-04-03T18:43:27.304Z,85.54
2019-04-03T18:46:00.230Z,86.01
2019-04-03T18:48:32.040Z,84.92
2019-04-03T18:51:06.432Z,84.80
2019-04-03T18:53:38.880Z,83.86
2019-04-03T18:56:11.743Z,86.61
2019-04-03T18:58:44.025Z,84.57
2019-04-03T19:01:17.175Z,81.90
2019-04-03T19:03:49.150Z,84.35
2019-04-03T19:06:20.950Z,83.13
2019-04-03T19:08:52.675Z,84.04
2019-04-03T19:11:24.832Z,85.91
2019-04-03T19:13:56.567Z,84.19
2019-04-03T19:16:29.777Z,83.44
2019-04-03T19:19:07.806Z,83.73
2019-04-03T19:21:35.729Z,82.44
2019-04-03T19:24:07.552Z,83.29
2019-04-03T19:26:40.370Z,87.22
2019-04-03T19:29:12.142Z,85.05
2019-04-03T19:31:43.865Z,84.39
2019-04-03T19:34:19.612Z,85.69
2019-04-03T19:36:49.145Z,84.83
2019-04-03T19:39:20.901Z,84.81
2019-04-03T19:41:52.774Z,85.63
2019-04-03T19:44:24.490Z,85.41
2019-04-03T19:46:56.310Z,85.50
2019-04-03T19:49:28.242Z,86.05
2019-04-03T19:52:00.039Z,86.26
2019-04-03T19:54:31.761Z,86.48
2019-04-03T19:57:03.516Z,86.33
2019-04-03T19:59:35.304Z,86.49
2019-04-03T20:02:09.340Z,86.62
2019-04-03T20:04:40.924Z,87.32
2019-04-03T20:07:12.834Z,87.09
2019-04-03T20:09:44.835Z,87.93
2019-04-03T20:12:17.750Z,87.48
2019-04-03T20:14:57.989Z,87.03
2019-04-03T20:17:24.523Z,87.40
2019-04-03T20:19:57.919Z,85.95
2019-04-03T20:22:31.479Z,87.94
2019-04-03T20:25:03.223Z,87.53
2019-04-03T20:27:35.130Z,86.84
2019-04-03T20:30:07.548Z,86.60
2019-04-03T20:32:40.726Z,86.82
2019-04-03T20:35:12.988Z,87.07
2019-04-03T20:37:44.758Z,86.95
2019-04-03T20:40:16.689Z,86.79
2019-04-03T20:42:48.525Z,86.81
2019-04-03T20:45:20.486Z,86.87
2019-04-03T20:47:52.263Z,86.16
2019-04-03T20:50:24.088Z,85.93
2019-04-03T20:52:57.096Z,86.72
2019-04-03T20:55:29.379Z,86.86
2019-04-03T20:58:01.267Z,86.72
2019-04-03T21:00:33.147Z,85.72
2019-04-03T21:03:05.002Z,86.49
2019-04-03T21:05:36.793Z,85.83
2019-04-03T21:08:09.848Z,86.61
2019-04-03T21:10:41.905Z,86.79
2019-04-03T21:13:15.446Z,86.22
2019-04-03T21:15:47.122Z,86.25
2019-04-03T21:18:20.694Z,87.24
2019-04-03T21:20:52.810Z,86.64
2019-04-03T21:23:26.738Z,86.34
2019-04-03T21:25:58.659Z,86.65
2019-04-03T21:28:30.466Z,89.02
2019-04-03T21:31:02.184Z,87.45
2019-04-03T21:33:33.901Z,86.91
2019-04-03T21:36:07.083Z,87.59
2019-04-03T21:38:39.935Z,86.36
2019-04-03T21:41:12.869Z,86.87
2019-04-03T21:43:44.592Z,88.29
2019-04-03T21:46:16.644Z,86.43
2019-04-03T21:48:48.375Z,86.44
2019-04-03T21:51:20.870Z,85.68
2019-04-03T21:53:55.839Z,86.39
2019-04-03T21:56:26.554Z,85.64
2019-04-03T21:58:58.338Z,85.14
2019-04-03T22:01:30.138Z,86.63
2019-04-03T22:04:01.952Z,85.27
2019-04-03T22:06:33.744Z,85.81
2019-04-03T22:09:10.622Z,85.56
2019-04-03T22:11:42.747Z,88.17
2019-04-03T22:14:14.481Z,85.72
2019-04-03T22:16:46.234Z,85.59
2019-04-03T22:19:17.972Z,85.56
2019-04-03T22:21:49.678Z,85.31
2019-04-03T22:24:21.577Z,87.02
2019-04-03T22:26:53.300Z,86.76
2019-04-03T22:29:25.030Z,87.27
2019-04-03T22:31:57.914Z,85.70
2019-04-03T22:34:29.902Z,86.23
2019-04-03T22:37:04.541Z,85.38
2019-04-03T22:39:37.048Z,85.06
2019-04-03T22:42:09.357Z,85.07
2019-04-03T22:44:41.097Z,85.99
2019-04-03T22:47:12.823Z,85.83
2019-04-03T22:49:44.590Z,85.16
2019-04-03T22:52:16.310Z,86.13
2019-04-03T22:54:48.047Z,86.20
2019-04-03T22:57:20.227Z,87.39
2019-04-03T22:59:54.483Z,87.21
2019-04-03T23:02:25.562Z,85.99
2019-04-03T23:04:57.419Z,85.80
2019-04-03T23:07:29.143Z,86.49
2019-04-03T23:10:01.008Z,85.95
2019-04-03T23:12:33.314Z,86.62
2019-04-03T23:15:08.616Z,85.86
2019-04-03T23:17:39.830Z,86.03
2019-04-03T23:20:11.803Z,86.31
2019-04-03T23:22:43.525Z,86.69
2019-04-03T23:25:15.259Z,86.94
2019-04-03T23:27:47.101Z,87.27
2019-04-03T23:30:19.178Z,87.88
2019-04-03T23:32:50.960Z,87.35
2019-04-03T23:35:22.767Z,87.18
2019-04-03T23:37:55.802Z,87.34
2019-04-03T23:40:28.170Z,87.79
2019-04-03T23:43:00.475Z,88.11
2019-04-03T23:45:32.511Z,88.07
2019-04-03T23:48:04.313Z,88.14
2019-04-03T23:50:36.132Z,87.61
2019-04-03T23:53:07.848Z,88.08
2019-04-03T23:55:39.930Z,88.32
2019-04-03T23:58:12.290Z,88.55
